sensor_id;sensor_type;location;lat;lon;timestamp;P1;durP1;ratioP1;P2;durP2;ratioP2
63438;SDS011;49567;48.958;8.294;2022-08-01T00:01:35;1.33;;;1.33;;
63438;SDS011;49567;48.958;8.294;2022-08-01T00:04:02;1.50;;;1.40;;
63438;SDS011;49567;48.958;8.294;2022-08-01T00:06:28;1.60;;;1.35;;
63438;SDS011;49567;48.958;8.294;2022-08-01T00:08:53;2.50;;;1.10;;
63438;SDS011;49567;48.958;8.294;2022-08-01T00:11:19;1.50;;;1.40;;
63438;SDS011;49567;48.958;8.294;2022-08-01T00:13:44;1.77;;;1.40;;
63438;SDS011;49567;48.958;8.294;2022-08-01T00:16:09;2.67;;;1.20;;
63438;SDS011;49567;48.958;8.294;2022-08-01T00:18:34;2.50;;;1.50;;
63438;SDS011;49567;48.958;8.294;2022-08-01T00:21:00;2.80;;;1.60;;
63438;SDS011;49567;48.958;8.294;2022-08-01T00:23:27;1.35;;;1.25;;
63438;SDS011;49567;48.958;8.294;2022-08-01T00:25:52;1.33;;;1.27;;
63438;SDS011;49567;48.958;8.294;2022-08-01T00:28:18;1.77;;;1.67;;
63438;SDS011;49567;48.958;8.294;2022-08-01T00:30:43;1.83;;;1.33;;
63438;SDS011;49567;48.958;8.294;2022-08-01T00:33:08;1.40;;;1.30;;
63438;SDS011;49567;48.958;8.294;2022-08-01T00:35:33;2.20;;;1.40;;
63438;SDS011;49567;48.958;8.294;2022-08-01T00:37:59;1.17;;;1.17;;
63438;SDS011;49567;48.958;8.294;2022-08-01T00:40:24;2.23;;;1.33;;
63438;SDS011;49567;48.958;8.294;2022-08-01T00:42:49;1.30;;;1.20;;
63438;SDS011;49567;48.958;8.294;2022-08-01T00:45:18;1.60;;;1.50;;
63438;SDS011;49567;48.958;8.294;2022-08-01T00:47:43;2.15;;;1.50;;
63438;SDS011;49567;48.958;8.294;2022-08-01T00:50:08;2.20;;;1.27;;
63438;SDS011;49567;48.958;8.294;2022-08-01T00:52:34;1.50;;;1.40;;
63438;SDS011;49567;48.958;8.294;2022-08-01T00:55:00;1.63;;;1.27;;
63438;SDS011;49567;48.958;8.294;2022-08-01T00:57:26;1.52;;;1.33;;
63438;SDS011;49567;48.958;8.294;2022-08-01T00:59:52;1.77;;;1.67;;
63438;SDS011;49567;48.958;8.294;2022-08-01T01:02:17;2.13;;;1.42;;
63438;SDS011;49567;48.958;8.294;2022-08-01T01:04:43;1.42;;;1.42;;
63438;SDS011;49567;48.958;8.294;2022-08-01T01:09:55;1.15;;;1.15;;
63438;SDS011;49567;48.958;8.294;2022-08-01T01:12:36;1.60;;;1.50;;
63438;SDS011;49567;48.958;8.294;2022-08-01T01:15:18;1.65;;;1.48;;
63438;SDS011;49567;48.958;8.294;2022-08-01T01:17:52;1.70;;;1.52;;
63438;SDS011;49567;48.958;8.294;2022-08-01T01:20:24;1.52;;;1.45;;
63438;SDS011;49567;48.958;8.294;2022-08-01T01:28:20;1.30;;;1.20;;
63438;SDS011;49567;48.958;8.294;2022-08-01T01:30:52;1.50;;;1.40;;
63438;SDS011;49567;48.958;8.294;2022-08-01T01:33:20;2.20;;;2.00;;
63438;SDS011;49567;48.958;8.294;2022-08-01T01:35:50;1.57;;;1.53;;
63438;SDS011;49567;48.958;8.294;2022-08-01T01:38:21;2.00;;;1.40;;
63438;SDS011;49567;48.958;8.294;2022-08-01T01:40:52;1.85;;;1.58;;
63438;SDS011;49567;48.958;8.294;2022-08-01T01:43:18;1.55;;;1.50;;
63438;SDS011;49567;48.958;8.294;2022-08-01T01:45:46;1.70;;;1.50;;
63438;SDS011;49567;48.958;8.294;2022-08-01T01:48:16;1.50;;;1.40;;
63438;SDS011;49567;48.958;8.294;2022-08-01T01:50:46;2.10;;;1.40;;
63438;SDS011;49567;48.958;8.294;2022-08-01T01:53:13;1.80;;;1.70;;
63438;SDS011;49567;48.958;8.294;2022-08-01T01:55:43;1.30;;;1.30;;
63438;SDS011;49567;48.958;8.294;2022-08-01T01:58:12;1.83;;;1.38;;
63438;SDS011;49567;48.958;8.294;2022-08-01T02:00:39;3.60;;;1.90;;
63438;SDS011;49567;48.958;8.294;2022-08-01T02:03:07;1.95;;;1.50;;
63438;SDS011;49567;48.958;8.294;2022-08-01T02:05:35;2.20;;;1.55;;
63438;SDS011;49567;48.958;8.294;2022-08-01T02:08:02;2.60;;;1.00;;
63438;SDS011;49567;48.958;8.294;2022-08-01T02:10:29;1.98;;;1.88;;
63438;SDS011;49567;48.958;8.294;2022-08-01T02:12:57;2.30;;;1.50;;
63438;SDS011;49567;48.958;8.294;2022-08-01T02:15:24;1.75;;;1.67;;
63438;SDS011;49567;48.958;8.294;2022-08-01T02:17:51;1.58;;;1.50;;
63438;SDS011;49567;48.958;8.294;2022-08-01T02:20:19;2.40;;;2.20;;
63438;SDS011;49567;48.958;8.294;2022-08-01T02:22:53;1.52;;;1.40;;
63438;SDS011;49567;48.958;8.294;2022-08-01T02:25:23;1.60;;;1.50;;
63438;SDS011;49567;48.958;8.294;2022-08-01T02:27:59;1.75;;;1.65;;
63438;SDS011;49567;48.958;8.294;2022-08-01T02:30:33;2.22;;;1.60;;
63438;SDS011;49567;48.958;8.294;2022-08-01T02:33:19;1.77;;;1.65;;
63438;SDS011;49567;48.958;8.294;2022-08-01T02:35:48;2.05;;;1.90;;
63438;SDS011;49567;48.958;8.294;2022-08-01T02:38:16;1.83;;;1.65;;
63438;SDS011;49567;48.958;8.294;2022-08-01T02:40:43;1.90;;;1.80;;
63438;SDS011;49567;48.958;8.294;2022-08-01T02:43:11;2.00;;;1.90;;
63438;SDS011;49567;48.958;8.294;2022-08-01T02:45:39;1.98;;;1.88;;
63438;SDS011;49567;48.958;8.294;2022-08-01T02:48:10;1.52;;;1.42;;
63438;SDS011;49567;48.958;8.294;2022-08-01T02:50:37;2.65;;;1.63;;
63438;SDS011;49567;48.958;8.294;2022-08-01T02:53:04;2.28;;;1.77;;
63438;SDS011;49567;48.958;8.294;2022-08-01T02:55:32;6.10;;;2.47;;
63438;SDS011;49567;48.958;8.294;2022-08-01T02:57:57;1.80;;;1.70;;
63438;SDS011;49567;48.958;8.294;2022-08-01T03:00:25;1.60;;;1.50;;
63438;SDS011;49567;48.958;8.294;2022-08-01T03:02:52;1.58;;;1.40;;
63438;SDS011;49567;48.958;8.294;2022-08-01T03:05:20;1.90;;;1.80;;
63438;SDS011;49567;48.958;8.294;2022-08-01T03:07:46;2.07;;;1.87;;
63438;SDS011;49567;48.958;8.294;2022-08-01T03:10:12;1.55;;;1.48;;
63438;SDS011;49567;48.958;8.294;2022-08-01T03:12:39;2.25;;;2.05;;
63438;SDS011;49567;48.958;8.294;2022-08-01T03:15:05;1.75;;;1.65;;
63438;SDS011;49567;48.958;8.294;2022-08-01T03:17:32;3.00;;;1.88;;
63438;SDS011;49567;48.958;8.294;2022-08-01T03:20:01;1.63;;;1.52;;
63438;SDS011;49567;48.958;8.294;2022-08-01T03:22:28;1.70;;;1.60;;
63438;SDS011;49567;48.958;8.294;2022-08-01T03:24:55;4.05;;;1.73;;
63438;SDS011;49567;48.958;8.294;2022-08-01T03:27:23;2.70;;;1.60;;
63438;SDS011;49567;48.958;8.294;2022-08-01T03:29:49;1.95;;;1.77;;
63438;SDS011;49567;48.958;8.294;2022-08-01T03:32:17;2.10;;;1.70;;
63438;SDS011;49567;48.958;8.294;2022-08-01T03:34:44;1.65;;;1.60;;
63438;SDS011;49567;48.958;8.294;2022-08-01T03:37:24;2.10;;;2.00;;
63438;SDS011;49567;48.958;8.294;2022-08-01T03:42:27;2.00;;;1.90;;
63438;SDS011;49567;48.958;8.294;2022-08-01T03:45:02;2.45;;;2.00;;
63438;SDS011;49567;48.958;8.294;2022-08-01T03:47:32;1.80;;;1.70;;
63438;SDS011;49567;48.958;8.294;2022-08-01T03:49:59;1.52;;;1.45;;
63438;SDS011;49567;48.958;8.294;2022-08-01T03:52:27;1.63;;;1.63;;
63438;SDS011;49567;48.958;8.294;2022-08-01T03:54:54;1.77;;;1.60;;
63438;SDS011;49567;48.958;8.294;2022-08-01T03:57:21;1.67;;;1.53;;
63438;SDS011;49567;48.958;8.294;2022-08-01T03:59:48;1.95;;;1.85;;
63438;SDS011;49567;48.958;8.294;2022-08-01T04:02:15;1.60;;;1.50;;
63438;SDS011;49567;48.958;8.294;2022-08-01T04:04:41;2.90;;;1.80;;
63438;SDS011;49567;48.958;8.294;2022-08-01T04:07:26;3.95;;;2.00;;
63438;SDS011;49567;48.958;8.294;2022-08-01T04:09:53;1.70;;;1.70;;
63438;SDS011;49567;48.958;8.294;2022-08-01T04:12:18;1.88;;;1.77;;
63438;SDS011;49567;48.958;8.294;2022-08-01T04:14:44;5.20;;;1.93;;
63438;SDS011;49567;48.958;8.294;2022-08-01T04:17:10;2.28;;;1.67;;
63438;SDS011;49567;48.958;8.294;2022-08-01T04:19:35;2.00;;;1.80;;
63438;SDS011;49567;48.958;8.294;2022-08-01T04:22:00;1.50;;;1.50;;
63438;SDS011;49567;48.958;8.294;2022-08-01T04:24:27;2.10;;;2.00;;
63438;SDS011;49567;48.958;8.294;2022-08-01T04:26:55;2.03;;;1.90;;
63438;SDS011;49567;48.958;8.294;2022-08-01T04:29:23;2.92;;;1.88;;
63438;SDS011;49567;48.958;8.294;2022-08-01T04:31:49;1.83;;;1.63;;
63438;SDS011;49567;48.958;8.294;2022-08-01T04:34:20;3.33;;;1.85;;
63438;SDS011;49567;48.958;8.294;2022-08-01T04:36:47;2.75;;;1.92;;
63438;SDS011;49567;48.958;8.294;2022-08-01T04:39:15;2.90;;;1.80;;
63438;SDS011;49567;48.958;8.294;2022-08-01T04:41:43;1.65;;;1.55;;
63438;SDS011;49567;48.958;8.294;2022-08-01T04:44:11;2.03;;;1.92;;
63438;SDS011;49567;48.958;8.294;2022-08-01T04:46:37;2.13;;;1.92;;
63438;SDS011;49567;48.958;8.294;2022-08-01T04:49:05;2.33;;;2.13;;
63438;SDS011;49567;48.958;8.294;2022-08-01T04:51:36;2.78;;;2.10;;
63438;SDS011;49567;48.958;8.294;2022-08-01T04:54:13;4.73;;;1.63;;
63438;SDS011;49567;48.958;8.294;2022-08-01T04:56:39;2.47;;;2.00;;
63438;SDS011;49567;48.958;8.294;2022-08-01T04:59:04;2.05;;;1.83;;
63438;SDS011;49567;48.958;8.294;2022-08-01T05:01:48;1.77;;;1.67;;
63438;SDS011;49567;48.958;8.294;2022-08-01T05:04:15;2.10;;;1.90;;
63438;SDS011;49567;48.958;8.294;2022-08-01T05:06:40;2.37;;;2.10;;
63438;SDS011;49567;48.958;8.294;2022-08-01T05:09:05;2.10;;;1.87;;
63438;SDS011;49567;48.958;8.294;2022-08-01T05:11:31;1.90;;;1.90;;
63438;SDS011;49567;48.958;8.294;2022-08-01T05:13:56;2.90;;;2.20;;
63438;SDS011;49567;48.958;8.294;2022-08-01T05:16:21;2.33;;;2.23;;
63438;SDS011;49567;48.958;8.294;2022-08-01T05:18:47;3.77;;;2.23;;
63438;SDS011;49567;48.958;8.294;2022-08-01T05:21:12;2.70;;;1.80;;
63438;SDS011;49567;48.958;8.294;2022-08-01T05:23:37;2.35;;;2.15;;
63438;SDS011;49567;48.958;8.294;2022-08-01T05:26:02;3.30;;;1.67;;
63438;SDS011;49567;48.958;8.294;2022-08-01T05:28:29;1.70;;;1.60;;
63438;SDS011;49567;48.958;8.294;2022-08-01T05:30:55;2.60;;;1.77;;
63438;SDS011;49567;48.958;8.294;2022-08-01T05:33:20;2.53;;;1.85;;
63438;SDS011;49567;48.958;8.294;2022-08-01T05:35:46;1.92;;;1.83;;
63438;SDS011;49567;48.958;8.294;2022-08-01T05:38:12;1.95;;;1.88;;
63438;SDS011;49567;48.958;8.294;2022-08-01T05:40:37;2.00;;;1.90;;
63438;SDS011;49567;48.958;8.294;2022-08-01T05:43:02;2.17;;;1.97;;
63438;SDS011;49567;48.958;8.294;2022-08-01T05:45:28;2.53;;;1.83;;
63438;SDS011;49567;48.958;8.294;2022-08-01T05:47:53;2.67;;;1.73;;
63438;SDS011;49567;48.958;8.294;2022-08-01T05:50:18;2.70;;;1.63;;
63438;SDS011;49567;48.958;8.294;2022-08-01T05:52:44;3.10;;;1.70;;
63438;SDS011;49567;48.958;8.294;2022-08-01T05:55:09;1.83;;;1.67;;
63438;SDS011;49567;48.958;8.294;2022-08-01T05:57:34;1.73;;;1.63;;
63438;SDS011;49567;48.958;8.294;2022-08-01T05:59:59;1.60;;;1.50;;
63438;SDS011;49567;48.958;8.294;2022-08-01T06:02:25;2.50;;;1.60;;
63438;SDS011;49567;48.958;8.294;2022-08-01T06:04:50;1.90;;;1.80;;
63438;SDS011;49567;48.958;8.294;2022-08-01T06:07:15;1.77;;;1.67;;
63438;SDS011;49567;48.958;8.294;2022-08-01T06:09:40;1.70;;;1.60;;
63438;SDS011;49567;48.958;8.294;2022-08-01T06:12:06;4.33;;;1.77;;
63438;SDS011;49567;48.958;8.294;2022-08-01T06:14:31;2.00;;;1.70;;
63438;SDS011;49567;48.958;8.294;2022-08-01T06:16:56;1.80;;;1.70;;
63438;SDS011;49567;48.958;8.294;2022-08-01T06:19:25;2.00;;;1.90;;
63438;SDS011;49567;48.958;8.294;2022-08-01T06:21:51;2.05;;;1.63;;
63438;SDS011;49567;48.958;8.294;2022-08-01T06:24:16;6.17;;;3.47;;
63438;SDS011;49567;48.958;8.294;2022-08-01T06:26:41;5.87;;;4.80;;
63438;SDS011;49567;48.958;8.294;2022-08-01T06:29:07;9.20;;;7.77;;
63438;SDS011;49567;48.958;8.294;2022-08-01T06:31:32;6.00;;;5.50;;
63438;SDS011;49567;48.958;8.294;2022-08-01T06:33:57;3.72;;;3.42;;
63438;SDS011;49567;48.958;8.294;2022-08-01T06:36:23;3.90;;;2.63;;
63438;SDS011;49567;48.958;8.294;2022-08-01T06:38:48;2.15;;;2.05;;
63438;SDS011;49567;48.958;8.294;2022-08-01T06:41:13;1.90;;;1.80;;
63438;SDS011;49567;48.958;8.294;2022-08-01T06:43:39;1.90;;;1.80;;
63438;SDS011;49567;48.958;8.294;2022-08-01T06:46:04;1.60;;;1.50;;
63438;SDS011;49567;48.958;8.294;2022-08-01T06:48:29;1.70;;;1.70;;
63438;SDS011;49567;48.958;8.294;2022-08-01T06:50:55;2.13;;;2.03;;
63438;SDS011;49567;48.958;8.294;2022-08-01T06:53:32;2.10;;;1.60;;
63438;SDS011;49567;48.958;8.294;2022-08-01T06:55:59;2.22;;;2.00;;
63438;SDS011;49567;48.958;8.294;2022-08-01T06:58:24;1.70;;;1.60;;
63438;SDS011;49567;48.958;8.294;2022-08-01T07:00:49;1.90;;;1.80;;
63438;SDS011;49567;48.958;8.294;2022-08-01T07:03:15;1.63;;;1.52;;
63438;SDS011;49567;48.958;8.294;2022-08-01T07:05:40;4.10;;;1.50;;
63438;SDS011;49567;48.958;8.294;2022-08-01T07:08:06;2.47;;;1.80;;
63438;SDS011;49567;48.958;8.294;2022-08-01T07:10:31;2.53;;;2.30;;
63438;SDS011;49567;48.958;8.294;2022-08-01T07:12:56;2.30;;;1.50;;
63438;SDS011;49567;48.958;8.294;2022-08-01T07:15:22;1.20;;;1.20;;
63438;SDS011;49567;48.958;8.294;2022-08-01T07:17:51;2.40;;;1.50;;
63438;SDS011;49567;48.958;8.294;2022-08-01T07:20:17;3.23;;;2.10;;
63438;SDS011;49567;48.958;8.294;2022-08-01T07:22:42;2.10;;;1.50;;
63438;SDS011;49567;48.958;8.294;2022-08-01T07:25:08;1.97;;;1.30;;
63438;SDS011;49567;48.958;8.294;2022-08-01T07:27:34;2.20;;;1.50;;
63438;SDS011;49567;48.958;8.294;2022-08-01T07:30:00;1.58;;;1.48;;
63438;SDS011;49567;48.958;8.294;2022-08-01T07:32:26;1.53;;;1.47;;
63438;SDS011;49567;48.958;8.294;2022-08-01T07:34:51;1.60;;;1.50;;
63438;SDS011;49567;48.958;8.294;2022-08-01T07:37:17;2.85;;;1.40;;
63438;SDS011;49567;48.958;8.294;2022-08-01T07:39:42;1.40;;;1.40;;
63438;SDS011;49567;48.958;8.294;2022-08-01T07:42:07;1.80;;;1.13;;
63438;SDS011;49567;48.958;8.294;2022-08-01T07:44:33;3.73;;;1.40;;
63438;SDS011;49567;48.958;8.294;2022-08-01T07:46:58;1.65;;;1.48;;
63438;SDS011;49567;48.958;8.294;2022-08-01T07:49:24;1.05;;;1.05;;
63438;SDS011;49567;48.958;8.294;2022-08-01T07:51:49;1.67;;;1.27;;
63438;SDS011;49567;48.958;8.294;2022-08-01T07:54:14;5.13;;;1.70;;
63438;SDS011;49567;48.958;8.294;2022-08-01T07:56:40;1.60;;;1.30;;
63438;SDS011;49567;48.958;8.294;2022-08-01T07:59:05;2.60;;;1.27;;
63438;SDS011;49567;48.958;8.294;2022-08-01T08:01:30;1.17;;;1.17;;
63438;SDS011;49567;48.958;8.294;2022-08-01T08:03:56;3.80;;;1.00;;
63438;SDS011;49567;48.958;8.294;2022-08-01T08:06:21;1.13;;;0.80;;
63438;SDS011;49567;48.958;8.294;2022-08-01T08:08:46;1.80;;;1.13;;
63438;SDS011;49567;48.958;8.294;2022-08-01T08:11:12;0.82;;;0.80;;
63438;SDS011;49567;48.958;8.294;2022-08-01T08:13:37;0.85;;;0.77;;
63438;SDS011;49567;48.958;8.294;2022-08-01T08:16:03;1.20;;;0.80;;
63438;SDS011;49567;48.958;8.294;2022-08-01T08:18:28;1.13;;;0.60;;
63438;SDS011;49567;48.958;8.294;2022-08-01T08:20:53;1.13;;;1.10;;
63438;SDS011;49567;48.958;8.294;2022-08-01T08:23:19;2.07;;;1.30;;
63438;SDS011;49567;48.958;8.294;2022-08-01T08:26:02;1.00;;;1.00;;
63438;SDS011;49567;48.958;8.294;2022-08-01T08:28:28;11.67;;;1.70;;
63438;SDS011;49567;48.958;8.294;2022-08-01T08:30:53;0.87;;;0.87;;
63438;SDS011;49567;48.958;8.294;2022-08-01T08:33:20;2.35;;;0.80;;
63438;SDS011;49567;48.958;8.294;2022-08-01T08:35:45;2.53;;;1.23;;
63438;SDS011;49567;48.958;8.294;2022-08-01T08:38:10;1.30;;;1.20;;
63438;SDS011;49567;48.958;8.294;2022-08-01T08:40:36;0.77;;;0.77;;
63438;SDS011;49567;48.958;8.294;2022-08-01T08:43:03;0.90;;;0.90;;
63438;SDS011;49567;48.958;8.294;2022-08-01T08:45:30;1.65;;;0.80;;
63438;SDS011;49567;48.958;8.294;2022-08-01T08:47:55;2.30;;;0.90;;
63438;SDS011;49567;48.958;8.294;2022-08-01T08:50:22;1.30;;;0.90;;
63438;SDS011;49567;48.958;8.294;2022-08-01T08:52:48;1.00;;;1.00;;
63438;SDS011;49567;48.958;8.294;2022-08-01T08:55:16;0.80;;;0.80;;
63438;SDS011;49567;48.958;8.294;2022-08-01T08:57:43;1.20;;;1.05;;
63438;SDS011;49567;48.958;8.294;2022-08-01T09:00:09;0.90;;;0.82;;
63438;SDS011;49567;48.958;8.294;2022-08-01T09:02:39;0.98;;;0.95;;
63438;SDS011;49567;48.958;8.294;2022-08-01T09:05:08;2.00;;;0.80;;
63438;SDS011;49567;48.958;8.294;2022-08-01T09:07:34;0.80;;;0.80;;
63438;SDS011;49567;48.958;8.294;2022-08-01T09:09:59;0.77;;;0.70;;
63438;SDS011;49567;48.958;8.294;2022-08-01T09:12:25;0.90;;;0.77;;
63438;SDS011;49567;48.958;8.294;2022-08-01T09:14:50;0.80;;;0.70;;
63438;SDS011;49567;48.958;8.294;2022-08-01T09:17:18;0.70;;;0.70;;
63438;SDS011;49567;48.958;8.294;2022-08-01T09:19:45;1.02;;;0.80;;
63438;SDS011;49567;48.958;8.294;2022-08-01T09:22:22;1.20;;;0.70;;
63438;SDS011;49567;48.958;8.294;2022-08-01T09:24:58;1.83;;;0.73;;
63438;SDS011;49567;48.958;8.294;2022-08-01T09:27:31;1.48;;;0.73;;
63438;SDS011;49567;48.958;8.294;2022-08-01T09:30:11;1.85;;;0.85;;
63438;SDS011;49567;48.958;8.294;2022-08-01T09:35:23;1.40;;;0.80;;
63438;SDS011;49567;48.958;8.294;2022-08-01T09:40:55;1.20;;;1.10;;
63438;SDS011;49567;48.958;8.294;2022-08-01T09:43:23;1.42;;;1.00;;
63438;SDS011;49567;48.958;8.294;2022-08-01T09:45:50;1.58;;;0.55;;
63438;SDS011;49567;48.958;8.294;2022-08-01T09:48:15;1.05;;;0.90;;
63438;SDS011;49567;48.958;8.294;2022-08-01T09:50:42;2.60;;;0.90;;
63438;SDS011;49567;48.958;8.294;2022-08-01T09:53:10;5.53;;;0.80;;
63438;SDS011;49567;48.958;8.294;2022-08-01T09:55:39;0.60;;;0.60;;
63438;SDS011;49567;48.958;8.294;2022-08-01T09:58:05;2.20;;;0.80;;
63438;SDS011;49567;48.958;8.294;2022-08-01T10:00:32;2.05;;;0.75;;
63438;SDS011;49567;48.958;8.294;2022-08-01T10:02:59;2.70;;;0.95;;
63438;SDS011;49567;48.958;8.294;2022-08-01T10:05:43;1.05;;;0.80;;
63438;SDS011;49567;48.958;8.294;2022-08-01T10:08:09;0.95;;;0.95;;
63438;SDS011;49567;48.958;8.294;2022-08-01T10:10:35;0.80;;;0.80;;
63438;SDS011;49567;48.958;8.294;2022-08-01T10:13:00;2.00;;;0.98;;
63438;SDS011;49567;48.958;8.294;2022-08-01T10:15:27;1.20;;;0.77;;
63438;SDS011;49567;48.958;8.294;2022-08-01T10:17:53;2.78;;;1.10;;
63438;SDS011;49567;48.958;8.294;2022-08-01T10:20:20;1.23;;;1.20;;
63438;SDS011;49567;48.958;8.294;2022-08-01T10:22:48;0.85;;;0.80;;
63438;SDS011;49567;48.958;8.294;2022-08-01T10:25:16;1.98;;;1.23;;
63438;SDS011;49567;48.958;8.294;2022-08-01T10:27:44;1.03;;;0.93;;
63438;SDS011;49567;48.958;8.294;2022-08-01T10:30:14;2.13;;;1.00;;
63438;SDS011;49567;48.958;8.294;2022-08-01T10:32:39;1.00;;;1.00;;
63438;SDS011;49567;48.958;8.294;2022-08-01T10:35:07;0.77;;;0.77;;
63438;SDS011;49567;48.958;8.294;2022-08-01T10:37:33;0.80;;;0.80;;
63438;SDS011;49567;48.958;8.294;2022-08-01T10:40:00;1.42;;;0.80;;
63438;SDS011;49567;48.958;8.294;2022-08-01T10:42:26;2.83;;;1.05;;
63438;SDS011;49567;48.958;8.294;2022-08-01T10:44:54;1.30;;;1.20;;
63438;SDS011;49567;48.958;8.294;2022-08-01T10:47:23;0.90;;;0.90;;
63438;SDS011;49567;48.958;8.294;2022-08-01T10:52:21;1.00;;;0.90;;
63438;SDS011;49567;48.958;8.294;2022-08-01T10:54:46;2.37;;;1.10;;
63438;SDS011;49567;48.958;8.294;2022-08-01T10:57:12;2.67;;;1.30;;
63438;SDS011;49567;48.958;8.294;2022-08-01T10:59:51;0.88;;;0.88;;
63438;SDS011;49567;48.958;8.294;2022-08-01T11:02:30;1.45;;;0.68;;
63438;SDS011;49567;48.958;8.294;2022-08-01T11:05:02;1.45;;;0.80;;
63438;SDS011;49567;48.958;8.294;2022-08-01T11:07:45;0.85;;;0.85;;
63438;SDS011;49567;48.958;8.294;2022-08-01T11:10:20;2.92;;;1.10;;
63438;SDS011;49567;48.958;8.294;2022-08-01T11:12:49;1.40;;;1.02;;
63438;SDS011;49567;48.958;8.294;2022-08-01T11:17:43;1.10;;;1.10;;
63438;SDS011;49567;48.958;8.294;2022-08-01T11:34:02;0.82;;;0.80;;
63438;SDS011;49567;48.958;8.294;2022-08-01T11:38:38;0.90;;;0.90;;
63438;SDS011;49567;48.958;8.294;2022-08-01T11:52:07;0.93;;;0.93;;
63438;SDS011;49567;48.958;8.294;2022-08-01T11:54:57;0.80;;;0.80;;
63438;SDS011;49567;48.958;8.294;2022-08-01T11:57:33;1.50;;;0.80;;
63438;SDS011;49567;48.958;8.294;2022-08-01T12:00:11;1.20;;;0.88;;
63438;SDS011;49567;48.958;8.294;2022-08-01T12:02:39;0.70;;;0.70;;
63438;SDS011;49567;48.958;8.294;2022-08-01T12:05:14;0.97;;;0.70;;
63438;SDS011;49567;48.958;8.294;2022-08-01T12:07:42;0.70;;;0.70;;
63438;SDS011;49567;48.958;8.294;2022-08-01T12:10:16;0.80;;;0.80;;
63438;SDS011;49567;48.958;8.294;2022-08-01T12:12:53;0.60;;;0.60;;
63438;SDS011;49567;48.958;8.294;2022-08-01T12:15:30;2.15;;;0.60;;
63438;SDS011;49567;48.958;8.294;2022-08-01T12:18:01;0.43;;;0.43;;
63438;SDS011;49567;48.958;8.294;2022-08-01T12:20:30;1.20;;;0.60;;
63438;SDS011;49567;48.958;8.294;2022-08-01T12:22:59;4.20;;;0.90;;
63438;SDS011;49567;48.958;8.294;2022-08-01T12:25:28;1.63;;;0.68;;
63438;SDS011;49567;48.958;8.294;2022-08-01T12:27:54;0.50;;;0.50;;
63438;SDS011;49567;48.958;8.294;2022-08-01T12:30:23;0.50;;;0.50;;
63438;SDS011;49567;48.958;8.294;2022-08-01T12:32:49;1.42;;;0.80;;
63438;SDS011;49567;48.958;8.294;2022-08-01T12:35:16;5.78;;;0.77;;
63438;SDS011;49567;48.958;8.294;2022-08-01T12:37:47;0.70;;;0.60;;
63438;SDS011;49567;48.958;8.294;2022-08-01T12:42:44;2.20;;;0.60;;
63438;SDS011;49567;48.958;8.294;2022-08-01T12:45:13;0.55;;;0.55;;
63438;SDS011;49567;48.958;8.294;2022-08-01T12:47:41;0.75;;;0.60;;
63438;SDS011;49567;48.958;8.294;2022-08-01T12:50:08;0.60;;;0.60;;
63438;SDS011;49567;48.958;8.294;2022-08-01T12:52:37;0.70;;;0.70;;
63438;SDS011;49567;48.958;8.294;2022-08-01T12:55:07;0.50;;;0.50;;
63438;SDS011;49567;48.958;8.294;2022-08-01T12:57:38;1.30;;;1.08;;
63438;SDS011;49567;48.958;8.294;2022-08-01T13:02:32;1.30;;;0.52;;
63438;SDS011;49567;48.958;8.294;2022-08-01T13:04:59;0.45;;;0.45;;
63438;SDS011;49567;48.958;8.294;2022-08-01T13:07:41;0.40;;;0.40;;
63438;SDS011;49567;48.958;8.294;2022-08-01T13:10:07;0.38;;;0.38;;
63438;SDS011;49567;48.958;8.294;2022-08-01T13:12:33;0.40;;;0.40;;
63438;SDS011;49567;48.958;8.294;2022-08-01T13:14:59;1.65;;;0.75;;
63438;SDS011;49567;48.958;8.294;2022-08-01T13:17:34;0.30;;;0.30;;
63438;SDS011;49567;48.958;8.294;2022-08-01T13:20:04;0.40;;;0.40;;
63438;SDS011;49567;48.958;8.294;2022-08-01T13:22:34;0.40;;;0.40;;
63438;SDS011;49567;48.958;8.294;2022-08-01T13:25:10;0.60;;;0.52;;
63438;SDS011;49567;48.958;8.294;2022-08-01T13:27:39;1.10;;;0.60;;
63438;SDS011;49567;48.958;8.294;2022-08-01T13:30:18;2.08;;;0.57;;
63438;SDS011;49567;48.958;8.294;2022-08-01T13:32:56;0.70;;;0.30;;
63438;SDS011;49567;48.958;8.294;2022-08-01T13:35:23;1.30;;;0.50;;
63438;SDS011;49567;48.958;8.294;2022-08-01T13:37:48;0.43;;;0.40;;
63438;SDS011;49567;48.958;8.294;2022-08-01T13:40:22;0.32;;;0.30;;
63438;SDS011;49567;48.958;8.294;2022-08-01T13:42:51;0.35;;;0.35;;
63438;SDS011;49567;48.958;8.294;2022-08-01T13:45:18;1.42;;;0.50;;
63438;SDS011;49567;48.958;8.294;2022-08-01T13:47:44;0.40;;;0.40;;
63438;SDS011;49567;48.958;8.294;2022-08-01T13:50:09;0.27;;;0.27;;
63438;SDS011;49567;48.958;8.294;2022-08-01T13:52:34;1.60;;;0.30;;
63438;SDS011;49567;48.958;8.294;2022-08-01T13:55:00;0.50;;;0.50;;
63438;SDS011;49567;48.958;8.294;2022-08-01T13:57:26;0.40;;;0.40;;
63438;SDS011;49567;48.958;8.294;2022-08-01T13:59:51;0.33;;;0.33;;
63438;SDS011;49567;48.958;8.294;2022-08-01T14:02:16;0.30;;;0.30;;
63438;SDS011;49567;48.958;8.294;2022-08-01T14:04:42;0.20;;;0.20;;
63438;SDS011;49567;48.958;8.294;2022-08-01T14:07:07;0.53;;;0.40;;
63438;SDS011;49567;48.958;8.294;2022-08-01T14:09:32;0.53;;;0.40;;
63438;SDS011;49567;48.958;8.294;2022-08-01T14:11:58;0.60;;;0.40;;
63438;SDS011;49567;48.958;8.294;2022-08-01T14:14:23;0.80;;;0.40;;
63438;SDS011;49567;48.958;8.294;2022-08-01T14:16:48;0.57;;;0.40;;
63438;SDS011;49567;48.958;8.294;2022-08-01T14:19:14;0.40;;;0.40;;
63438;SDS011;49567;48.958;8.294;2022-08-01T14:21:41;0.82;;;0.43;;
63438;SDS011;49567;48.958;8.294;2022-08-01T14:24:07;0.30;;;0.30;;
63438;SDS011;49567;48.958;8.294;2022-08-01T14:26:32;0.30;;;0.30;;
63438;SDS011;49567;48.958;8.294;2022-08-01T14:28:58;0.40;;;0.40;;
63438;SDS011;49567;48.958;8.294;2022-08-01T14:31:23;1.40;;;0.33;;
63438;SDS011;49567;48.958;8.294;2022-08-01T14:33:48;0.30;;;0.30;;
63438;SDS011;49567;48.958;8.294;2022-08-01T14:36:13;0.30;;;0.30;;
63438;SDS011;49567;48.958;8.294;2022-08-01T14:38:39;0.35;;;0.35;;
63438;SDS011;49567;48.958;8.294;2022-08-01T14:41:04;0.67;;;0.47;;
63438;SDS011;49567;48.958;8.294;2022-08-01T14:43:29;0.90;;;0.30;;
63438;SDS011;49567;48.958;8.294;2022-08-01T14:45:56;0.50;;;0.40;;
63438;SDS011;49567;48.958;8.294;2022-08-01T14:48:21;0.40;;;0.30;;
63438;SDS011;49567;48.958;8.294;2022-08-01T14:50:47;3.10;;;0.60;;
63438;SDS011;49567;48.958;8.294;2022-08-01T14:53:13;2.00;;;0.40;;
63438;SDS011;49567;48.958;8.294;2022-08-01T14:55:38;1.60;;;0.47;;
63438;SDS011;49567;48.958;8.294;2022-08-01T14:58:03;0.50;;;0.40;;
63438;SDS011;49567;48.958;8.294;2022-08-01T15:00:28;1.73;;;0.50;;
63438;SDS011;49567;48.958;8.294;2022-08-01T15:02:54;3.23;;;0.30;;
63438;SDS011;49567;48.958;8.294;2022-08-01T15:05:19;2.70;;;0.60;;
63438;SDS011;49567;48.958;8.294;2022-08-01T15:07:45;4.45;;;0.93;;
63438;SDS011;49567;48.958;8.294;2022-08-01T15:10:10;2.00;;;0.60;;
63438;SDS011;49567;48.958;8.294;2022-08-01T15:12:35;1.97;;;0.40;;
63438;SDS011;49567;48.958;8.294;2022-08-01T15:15:04;0.40;;;0.40;;
63438;SDS011;49567;48.958;8.294;2022-08-01T15:17:30;0.50;;;0.30;;
63438;SDS011;49567;48.958;8.294;2022-08-01T15:19:59;0.60;;;0.28;;
63438;SDS011;49567;48.958;8.294;2022-08-01T15:22:27;0.40;;;0.40;;
63438;SDS011;49567;48.958;8.294;2022-08-01T15:24:54;0.50;;;0.50;;
63438;SDS011;49567;48.958;8.294;2022-08-01T15:27:20;3.00;;;0.40;;
63438;SDS011;49567;48.958;8.294;2022-08-01T15:29:46;1.80;;;0.40;;
63438;SDS011;49567;48.958;8.294;2022-08-01T15:32:11;0.90;;;0.40;;
63438;SDS011;49567;48.958;8.294;2022-08-01T15:34:37;0.30;;;0.30;;
63438;SDS011;49567;48.958;8.294;2022-08-01T15:37:04;0.60;;;0.60;;
63438;SDS011;49567;48.958;8.294;2022-08-01T15:39:30;0.60;;;0.40;;
63438;SDS011;49567;48.958;8.294;2022-08-01T15:41:58;2.60;;;0.40;;
63438;SDS011;49567;48.958;8.294;2022-08-01T15:44:24;0.52;;;0.30;;